首页
METAR-TAF:

METAR-TAF

机场 :

Southwest Florida International Airport

麥爾茲堡, 佛罗里达州, 美国

纬度: 26-31-37N, 经度: 081-45-59W, 海拔: 9米

当前天气观测

该预报发布于37分钟前的16:53 UTC
风速13节,风向西转西南
温度 33°C
湿度 56%
气压 1015 hPa
能見度: 16.1公里
少量云层高于4400英尺

METAR: KRSW 041653Z 24013KT 10SM FEW044 33/23 A2997 RMK AO2 SLP145 T03280233

时间: 13:30 (17:30 UTC)

预报

该预报发布于5小时和57分钟前的11:33 UTC
预报有效从04日的 12点(UTC)到 05日的 12点(UTC)
风速3节,风向多变
能見度: 10公里
散云层高于3000英尺
散云层高于25000英尺
从 04日的 1800点(UTC)
风速10节,风向西转西南
能見度: 10公里
散云层高于4000英尺, 积雨云.
多云层高于20000英尺
附近有雷暴
从 04日的 2100点(UTC)
风速10节,风向西
能見度: 10公里
散云层高于4000英尺
多云层高于20000英尺
从 05日的 0300点(UTC)
风速3节,风向多变
能見度: 10公里
少量云层高于3000英尺
散云层高于20000英尺

TAF: KRSW 041133Z 0412/0512 VRB03KT P6SM SCT030 SCT250 FM041800 25010KT P6SM VCTS SCT040CB BKN200 FM042100 26010KT P6SM SCT040 BKN200 FM050300 VRB03KT P6SM FEW030 SCT200

超过4000个机场的气象观测和天气预报(METAR&TAF报告)。

可查询的气象台以黄色和红色小点在地图上表示。

将鼠标移到小点上方,可查看气象台名称。

然后点击查看天气观测和预报。

如需切换地图:点击带黑十字的绿色按钮放大地图;点击带横线的绿色按钮缩小地图;或者点击绿色箭头查看邻近地区的地图。


METAR-TAF: